Time;durP1;ratioP1;P1;durP2;ratioP2;P2;SDS_P1;SDS_P2;PMS_P1;PMS_P2;Temp;Humidity;BMP_temperature;BMP_pressure;BME280_temperature;BME280_humidity;BME280_pressure;Samples;Min_cycle;Max_cycle;Signal;HPM_P1;HPM_P2
2023/06/07 00:01:05;;;;;;;15.83;10.00;;;16.60;99.90;;;;;;5055432;28;20644;-76
2023/06/07 00:03:32;;;;;;;17.30;10.53;;;16.60;99.90;;;;;;5055795;28;20196;-77
2023/06/07 00:06:00;;;;;;;20.07;10.53;;;16.60;99.90;;;;;;5055747;28;20238;-76
2023/06/07 00:08:28;;;;;;;17.40;10.57;;;16.60;99.90;;;;;;5055726;28;20234;-76
2023/06/07 00:10:54;;;;;;;17.40;11.10;;;16.50;99.90;;;;;;5055702;28;20166;-77
2023/06/07 00:13:20;;;;;;;14.57;10.27;;;16.40;99.90;;;;;;5055936;28;20169;-76
2023/06/07 00:15:46;;;;;;;16.47;10.77;;;16.50;99.90;;;;;;5055231;28;20201;-76
2023/06/07 00:18:12;;;;;;;17.33;10.67;;;16.50;99.90;;;;;;5055485;28;20621;-77
2023/06/07 00:20:37;;;;;;;15.43;10.23;;;16.50;99.90;;;;;;5055563;28;20251;-77
2023/06/07 00:23:05;;;;;;;18.63;10.40;;;16.50;99.90;;;;;;5055648;28;20172;-77
2023/06/07 00:25:30;;;;;;;19.47;10.67;;;16.50;99.90;;;;;;5055283;28;20174;-76
2023/06/07 00:27:56;;;;;;;16.67;10.90;;;16.50;99.90;;;;;;5055356;28;20248;-77
2023/06/07 00:30:22;;;;;;;18.87;10.40;;;16.40;99.90;;;;;;5037013;28;20177;-77
2023/06/07 00:32:48;;;;;;;18.10;11.17;;;16.50;99.90;;;;;;5037504;28;20219;-78
2023/06/07 00:35:14;;;;;;;14.80;10.40;;;16.50;99.90;;;;;;5054876;28;20652;-77
2023/06/07 00:37:41;;;;;;;16.13;10.43;;;16.40;99.90;;;;;;5055034;28;20161;-77
2023/06/07 00:40:09;;;;;;;16.57;11.00;;;16.30;99.90;;;;;;5055190;28;20268;-77
2023/06/07 00:42:35;;;;;;;18.93;10.73;;;16.30;99.90;;;;;;5037349;28;20197;-76
2023/06/07 00:45:00;;;;;;;17.67;10.87;;;16.20;99.90;;;;;;5054672;28;20627;-75
2023/06/07 00:47:27;;;;;;;14.97;10.87;;;16.10;99.90;;;;;;5055026;28;20169;-75
2023/06/07 00:49:53;;;;;;;16.50;10.73;;;16.10;99.90;;;;;;5054823;28;20258;-76
2023/06/07 00:52:20;;;;;;;19.47;10.97;;;16.00;99.90;;;;;;5037033;28;20188;-77
2023/06/07 00:54:47;;;;;;;18.00;11.00;;;16.00;99.90;;;;;;5054804;28;20663;-76
2023/06/07 00:57:15;;;;;;;12.97;10.93;;;16.00;99.90;;;;;;5055240;28;20563;-76
2023/06/07 00:59:41;;;;;;;19.77;11.43;;;16.00;99.90;;;;;;5054333;28;20682;-77
2023/06/07 01:02:07;;;;;;;16.70;11.30;;;16.00;99.90;;;;;;5054784;28;20169;-77
2023/06/07 01:04:34;;;;;;;19.33;11.10;;;16.00;99.90;;;;;;5036881;28;20197;-77
2023/06/07 01:07:02;;;;;;;14.53;10.73;;;16.10;99.90;;;;;;5036817;28;20177;-76
2023/06/07 01:09:28;;;;;;;19.17;11.13;;;16.10;99.90;;;;;;5054562;28;20187;-76
2023/06/07 01:11:55;;;;;;;15.37;11.20;;;16.00;99.90;;;;;;5036478;28;20537;-76
2023/06/07 01:14:23;;;;;;;20.77;12.17;;;16.00;99.90;;;;;;5054340;28;20204;-76
2023/06/07 01:16:52;;;;;;;17.17;11.30;;;15.90;99.90;;;;;;5054575;28;20173;-76
2023/06/07 01:19:21;;;;;;;14.67;11.20;;;15.80;99.90;;;;;;5054549;28;20170;-76
2023/06/07 01:21:51;;;;;;;16.53;11.10;;;15.70;99.90;;;;;;5054388;28;20256;-77
2023/06/07 01:24:18;;;;;;;17.60;11.20;;;15.60;99.90;;;;;;5036403;28;20246;-77
2023/06/07 01:26:45;;;;;;;17.53;11.07;;;15.60;99.90;;;;;;5036262;28;20267;-75
2023/06/07 01:29:12;;;;;;;18.67;11.23;;;15.50;99.90;;;;;;5054325;28;20295;-74
2023/06/07 01:31:39;;;;;;;16.57;11.00;;;15.40;99.90;;;;;;5054366;28;20176;-76
2023/06/07 01:34:07;;;;;;;17.53;11.93;;;15.40;99.90;;;;;;5035995;28;20177;-75
2023/06/07 01:36:34;;;;;;;19.23;11.83;;;15.40;99.90;;;;;;5054424;28;20560;-76
2023/06/07 01:39:02;;;;;;;26.77;13.00;;;15.40;99.90;;;;;;5054061;28;20189;-76
2023/06/07 01:41:29;;;;;;;19.83;11.27;;;15.40;99.90;;;;;;5053616;28;20639;-76
2023/06/07 01:43:57;;;;;;;17.97;12.50;;;15.40;99.90;;;;;;5036122;28;20169;-76
2023/06/07 01:46:23;;;;;;;18.53;11.93;;;15.40;99.90;;;;;;5053994;28;20172;-77
2023/06/07 01:48:49;;;;;;;17.00;11.80;;;15.30;99.90;;;;;;5053959;28;20213;-78
2023/06/07 01:51:15;;;;;;;16.87;11.53;;;15.20;99.90;;;;;;5054082;28;20690;-76
2023/06/07 01:53:41;;;;;;;16.53;11.40;;;15.20;99.90;;;;;;5053666;28;20169;-77
2023/06/07 01:56:35;;;;;;;14.83;11.50;;;15.30;99.90;;;;;;5053524;28;20204;-77
2023/06/07 01:59:12;;;;;;;17.00;11.23;;;15.30;99.90;;;;;;5035910;28;20272;-76
2023/06/07 02:01:41;;;;;;;17.90;12.50;;;15.30;99.90;;;;;;5053760;28;20177;-77
2023/06/07 02:04:10;;;;;;;20.50;12.50;;;15.20;99.90;;;;;;5053366;28;20644;-78
2023/06/07 02:06:40;;;;;;;22.37;12.90;;;15.10;99.90;;;;;;5053769;28;20647;-77
2023/06/07 02:09:12;;;;;;;22.03;12.70;;;15.10;99.90;;;;;;5036031;28;20177;-77
2023/06/07 02:11:39;;;;;;;19.20;11.37;;;15.00;99.90;;;;;;5053589;28;20177;-77
2023/06/07 02:14:06;;;;;;;20.87;12.17;;;15.00;99.90;;;;;;5053406;28;20181;-77
2023/06/07 02:16:34;;;;;;;22.77;12.70;;;14.90;99.90;;;;;;5053561;28;20173;-75
2023/06/07 02:19:00;;;;;;;18.03;12.03;;;14.90;99.90;;;;;;5053685;28;20227;-76
2023/06/07 02:21:26;;;;;;;17.73;12.33;;;14.80;99.90;;;;;;5053651;28;20553;-76
2023/06/07 02:23:51;;;;;;;21.00;12.17;;;14.80;99.90;;;;;;5053471;28;20262;-76
2023/06/07 02:26:20;;;;;;;19.17;12.87;;;14.80;99.90;;;;;;5053111;28;20621;-77
2023/06/07 02:28:45;;;;;;;36.03;14.60;;;14.80;99.90;;;;;;5053190;28;20208;-76
2023/06/07 02:31:11;;;;;;;18.40;12.90;;;14.80;99.90;;;;;;5053227;28;20177;-76
2023/06/07 02:33:37;;;;;;;18.67;13.03;;;14.70;99.90;;;;;;5053234;28;20594;-76
2023/06/07 02:36:02;;;;;;;19.30;12.33;;;14.70;99.90;;;;;;5053080;28;20224;-75
2023/06/07 02:38:28;;;;;;;21.17;12.50;;;14.70;99.90;;;;;;5035441;28;20255;-77
2023/06/07 02:40:55;;;;;;;20.83;12.37;;;14.70;99.90;;;;;;5034830;28;20169;-77
2023/06/07 02:43:20;;;;;;;18.00;12.57;;;14.70;99.90;;;;;;5053195;28;20177;-77
2023/06/07 02:45:46;;;;;;;18.17;12.40;;;14.70;99.90;;;;;;5052898;28;20617;-77
2023/06/07 02:48:15;;;;;;;16.07;12.20;;;14.60;99.90;;;;;;5035186;28;20212;-77
2023/06/07 02:50:40;;;;;;;25.87;13.47;;;14.60;99.90;;;;;;5035179;28;20182;-76
2023/06/07 02:53:07;;;;;;;19.70;12.60;;;14.60;99.90;;;;;;5035157;28;20184;-76
2023/06/07 02:55:33;;;;;;;19.07;12.63;;;14.50;99.90;;;;;;5052673;28;20303;-77
2023/06/07 02:57:59;;;;;;;20.93;12.77;;;14.50;99.90;;;;;;5034913;28;20177;-75
2023/06/07 03:00:26;;;;;;;16.97;13.00;;;14.50;99.90;;;;;;5052642;28;20223;-75
2023/06/07 03:02:51;;;;;;;21.83;12.67;;;14.50;99.90;;;;;;5052830;28;20252;-76
2023/06/07 03:05:17;;;;;;;22.37;12.83;;;14.50;99.90;;;;;;5052836;28;20259;-76
2023/06/07 03:07:43;;;;;;;19.37;12.53;;;14.50;99.90;;;;;;5053097;28;20173;-76
2023/06/07 03:10:09;;;;;;;18.40;13.00;;;14.50;99.90;;;;;;5052320;28;20711;-76
2023/06/07 03:12:35;;;;;;;24.23;13.43;;;14.50;99.90;;;;;;5053141;28;20170;-77
2023/06/07 03:15:00;;;;;;;24.10;13.87;;;14.50;99.90;;;;;;5052538;28;20605;-75
2023/06/07 03:17:27;;;;;;;18.60;12.43;;;14.50;99.90;;;;;;5054561;28;20691;-76
2023/06/07 03:19:53;;;;;;;19.53;13.07;;;14.50;99.90;;;;;;5038430;28;20181;-77
2023/06/07 03:22:21;;;;;;;18.27;12.47;;;14.50;99.90;;;;;;5056538;28;20213;-77
2023/06/07 03:24:47;;;;;;;20.57;12.70;;;14.50;99.90;;;;;;5056595;28;20169;-76
2023/06/07 03:27:13;;;;;;;20.50;12.47;;;14.50;99.90;;;;;;5056642;28;20268;-77
2023/06/07 03:29:39;;;;;;;21.40;12.87;;;14.50;99.90;;;;;;5056262;28;20262;-76
2023/06/07 03:32:05;;;;;;;26.27;13.57;;;14.40;99.90;;;;;;5056367;28;20173;-77
2023/06/07 03:34:32;;;;;;;20.07;13.37;;;14.30;99.90;;;;;;5055878;28;20260;-77
2023/06/07 03:36:58;;;;;;;19.53;12.77;;;14.30;99.90;;;;;;5056353;28;20177;-76
2023/06/07 03:39:24;;;;;;;17.20;12.67;;;14.30;99.90;;;;;;5056171;28;20701;-76
2023/06/07 03:41:49;;;;;;;16.43;12.33;;;14.20;99.90;;;;;;5056142;28;20617;-76
2023/06/07 03:44:15;;;;;;;17.10;13.13;;;14.20;99.90;;;;;;5056049;28;20617;-76
2023/06/07 03:46:41;;;;;;;23.40;13.37;;;14.20;99.90;;;;;;5055620;28;20219;-76
2023/06/07 03:49:07;;;;;;;22.80;13.23;;;14.20;99.90;;;;;;5056100;28;20212;-75
2023/06/07 03:51:33;;;;;;;20.50;12.07;;;14.20;99.90;;;;;;5055596;28;20536;-75
2023/06/07 03:53:59;;;;;;;22.10;13.47;;;14.20;99.90;;;;;;5055499;28;20188;-77
2023/06/07 03:56:25;;;;;;;20.50;13.07;;;14.20;99.90;;;;;;5055700;28;20258;-75
2023/06/07 03:58:54;;;;;;;21.47;12.70;;;14.20;99.90;;;;;;5055651;28;20177;-75
2023/06/07 04:01:21;;;;;;;19.30;11.50;;;14.10;99.90;;;;;;5055909;28;20247;-76
2023/06/07 04:03:47;;;;;;;19.27;12.57;;;14.20;99.90;;;;;;5055285;28;20204;-77
2023/06/07 04:06:14;;;;;;;21.43;13.40;;;14.20;99.90;;;;;;5054967;28;20205;-77
2023/06/07 04:08:40;;;;;;;24.20;12.87;;;14.20;99.90;;;;;;5055439;28;20231;-77
2023/06/07 04:11:06;;;;;;;17.17;12.17;;;14.20;99.90;;;;;;5055289;28;20174;-78
2023/06/07 04:13:32;;;;;;;18.17;12.47;;;14.20;99.90;;;;;;5055206;28;20165;-76
2023/06/07 04:15:57;;;;;;;19.50;12.40;;;14.20;99.90;;;;;;5055097;28;20249;-78
2023/06/07 04:18:23;;;;;;;19.30;13.50;;;14.20;99.90;;;;;;5055534;28;20170;-76
2023/06/07 04:20:48;;;;;;;18.33;13.00;;;14.20;99.90;;;;;;5054978;28;20177;-78
2023/06/07 04:23:14;;;;;;;26.10;12.50;;;14.20;99.90;;;;;;5055195;28;20176;-77
2023/06/07 04:25:41;;;;;;;19.83;12.47;;;14.30;99.90;;;;;;5055242;28;20278;-76
2023/06/07 04:28:10;;;;;;;20.43;12.47;;;14.30;99.90;;;;;;5036728;28;20169;-76
2023/06/07 04:30:36;;;;;;;18.07;12.43;;;14.30;99.90;;;;;;5054913;28;20711;-78
2023/06/07 04:33:09;;;;;;;18.33;12.47;;;14.20;99.90;;;;;;5055073;28;20698;-78
2023/06/07 04:35:41;;;;;;;23.27;12.80;;;14.30;99.90;;;;;;5054226;28;20228;-77
2023/06/07 04:38:10;;;;;;;20.00;12.63;;;14.40;99.90;;;;;;5036952;28;20183;-77
2023/06/07 04:40:40;;;;;;;24.03;13.10;;;14.40;99.90;;;;;;5054470;28;20169;-77
2023/06/07 04:43:07;;;;;;;18.57;12.53;;;14.50;99.90;;;;;;5055097;28;20260;-79
2023/06/07 04:45:33;;;;;;;17.30;12.10;;;14.70;99.90;;;;;;5054812;28;20200;-79
2023/06/07 04:48:00;;;;;;;17.57;12.10;;;14.90;99.90;;;;;;5054640;28;20232;-78
2023/06/07 04:50:28;;;;;;;17.87;12.00;;;15.30;99.90;;;;;;5054339;28;20169;-78
2023/06/07 04:53:00;;;;;;;20.73;12.07;;;15.80;92.20;;;;;;5054466;28;20165;-77
2023/06/07 04:55:30;;;;;;;18.37;11.53;;;16.30;67.00;;;;;;5036721;28;20188;-78
2023/06/07 04:57:57;;;;;;;18.33;10.80;;;16.70;44.70;;;;;;5054447;28;20174;-78
2023/06/07 05:00:26;;;;;;;17.43;10.70;;;17.10;28.00;;;;;;5054410;28;20181;-78
2023/06/07 05:02:52;;;;;;;13.63;10.40;;;17.20;18.10;;;;;;5054159;28;20173;-78
2023/06/07 05:05:19;;;;;;;16.70;10.70;;;16.80;23.00;;;;;;5053371;28;20220;-76
2023/06/07 05:07:46;;;;;;;18.57;10.93;;;16.50;32.60;;;;;;5053896;28;20187;-77
2023/06/07 05:10:12;;;;;;;16.27;11.83;;;16.10;51.00;;;;;;5053241;28;20185;-76
2023/06/07 05:12:38;;;;;;;14.70;11.57;;;16.10;51.40;;;;;;5053705;28;20579;-76
2023/06/07 05:15:05;;;;;;;19.43;11.30;;;15.90;57.40;;;;;;5053709;28;20178;-77
2023/06/07 05:17:32;;;;;;;15.90;11.23;;;15.90;62.50;;;;;;5054200;28;20180;-75
2023/06/07 05:19:57;;;;;;;24.00;12.20;;;15.80;67.20;;;;;;5053931;28;20248;-78
2023/06/07 05:22:23;;;;;;;19.30;11.33;;;15.80;65.70;;;;;;5035411;28;20208;-78
2023/06/07 05:24:50;;;;;;;16.73;12.03;;;16.00;68.60;;;;;;5054083;28;20212;-79
2023/06/07 05:27:15;;;;;;;20.80;11.47;;;16.70;42.70;;;;;;5053355;28;20165;-78
2023/06/07 05:29:41;;;;;;;23.80;11.40;;;17.20;22.00;;;;;;5053955;28;20575;-77
2023/06/07 05:32:07;;;;;;;18.87;11.33;;;17.60;10.90;;;;;;5053226;28;20173;-78
2023/06/07 05:34:35;;;;;;;16.87;11.20;;;17.60;1.00;;;;;;5052868;28;20209;-76
2023/06/07 05:37:04;;;;;;;22.20;11.50;;;17.30;7.40;;;;;;5035078;28;20228;-77
2023/06/07 05:39:29;;;;;;;19.90;11.77;;;16.90;20.40;;;;;;5052453;28;20158;-77
2023/06/07 05:41:55;;;;;;;15.60;11.17;;;17.10;18.50;;;;;;5052598;28;20176;-77
2023/06/07 05:44:21;;;;;;;19.17;11.10;;;18.00;8.70;;;;;;5034871;28;20180;-78
2023/06/07 05:46:46;;;;;;;15.38;10.55;;;18.60;1.00;;;;;;5053283;28;20621;-77
2023/06/07 05:49:12;;;;;;;17.00;10.52;;;19.20;1.00;;;;;;5052634;28;20193;-77
2023/06/07 05:51:37;;;;;;;14.68;10.02;;;19.20;1.00;;;;;;5052987;28;20218;-76
2023/06/07 05:54:05;;;;;;;18.10;10.93;;;19.30;1.00;;;;;;5051680;28;20255;-77
2023/06/07 05:56:31;;;;;;;17.48;10.00;;;19.80;1.00;;;;;;5052597;28;20177;-78
2023/06/07 05:58:56;;;;;;;13.43;10.70;;;20.10;1.00;;;;;;5052854;28;20616;-76
2023/06/07 06:01:22;;;;;;;15.80;10.85;;;20.20;1.00;;;;;;5034411;28;20255;-79
2023/06/07 06:03:47;;;;;;;20.38;10.68;;;20.20;1.00;;;;;;5051858;28;20197;-78
2023/06/07 06:06:15;;;;;;;13.43;10.13;;;20.70;1.00;;;;;;5052455;28;20258;-77
2023/06/07 06:08:41;;;;;;;20.33;11.02;;;20.70;1.00;;;;;;5034660;28;20204;-78
2023/06/07 06:11:11;;;;;;;18.05;11.20;;;21.00;1.00;;;;;;5034344;28;20173;-78
2023/06/07 06:13:37;;;;;;;16.88;10.93;;;20.90;1.00;;;;;;5051930;28;20161;-76
2023/06/07 06:16:03;;;;;;;17.60;10.98;;;20.10;1.00;;;;;;5051250;28;20260;-78
2023/06/07 06:18:28;;;;;;;17.48;11.27;;;18.90;1.00;;;;;;5033546;28;20205;-76
2023/06/07 06:20:54;;;;;;;17.35;12.18;;;18.30;1.00;;;;;;5051355;28;20173;-74
2023/06/07 06:23:20;;;;;;;21.48;11.75;;;17.90;1.00;;;;;;5051120;28;20169;-75
2023/06/07 06:25:46;;;;;;;27.70;12.50;;;17.50;2.50;;;;;;5050360;28;20884;-74
2023/06/07 06:28:12;;;;;;;18.23;12.15;;;17.80;1.00;;;;;;5033264;28;20256;-76
2023/06/07 06:30:37;;;;;;;15.23;11.57;;;17.70;1.00;;;;;;5052046;28;20270;-79
2023/06/07 06:33:03;;;;;;;19.30;12.47;;;17.40;5.00;;;;;;5051600;28;20168;-79
2023/06/07 06:35:32;;;;;;;19.60;12.43;;;17.40;5.20;;;;;;5051528;28;20217;-78
2023/06/07 06:37:58;;;;;;;19.80;11.97;;;17.30;7.90;;;;;;5034190;28;20176;-78
2023/06/07 06:40:24;;;;;;;20.60;12.50;;;17.90;1.00;;;;;;5033314;28;20192;-77
2023/06/07 06:42:50;;;;;;;21.13;12.10;;;18.50;1.00;;;;;;5034212;28;20617;-76
2023/06/07 06:45:16;;;;;;;26.08;11.95;;;19.60;1.00;;;;;;5051958;28;20224;-80
2023/06/07 06:47:42;;;;;;;16.40;11.68;;;20.40;1.00;;;;;;5051866;28;20668;-79
2023/06/07 06:50:12;;;;;;;14.18;11.63;;;21.50;1.00;;;;;;5051593;28;20563;-75
2023/06/07 06:52:41;;;;;;;18.50;11.38;;;21.10;1.00;;;;;;5056163;28;20197;-77
2023/06/07 06:55:08;;;;;;;17.00;11.82;;;20.60;1.00;;;;;;5055767;28;20183;-75
2023/06/07 06:57:34;;;;;;;14.52;11.98;;;20.40;1.00;;;;;;5056453;28;20170;-75
2023/06/07 07:00:00;;;;;;;16.98;11.70;;;20.20;1.00;;;;;;5055336;28;20176;-75
2023/06/07 07:02:26;;;;;;;17.33;12.43;;;19.80;1.00;;;;;;5056071;28;20260;-74
2023/06/07 07:04:53;;;;;;;17.30;12.40;;;19.60;1.00;;;;;;5055705;28;20331;-76
2023/06/07 07:07:18;;;;;;;21.65;12.75;;;19.40;1.00;;;;;;5056183;28;20169;-76
2023/06/07 07:09:44;;;;;;;16.40;12.70;;;19.20;1.00;;;;;;5037782;28;20165;-76
2023/06/07 07:12:11;;;;;;;22.17;12.93;;;18.40;1.00;;;;;;5055757;28;20256;-77
2023/06/07 07:14:36;;;;;;;19.13;12.73;;;18.40;1.00;;;;;;5055188;28;20170;-75
2023/06/07 07:17:02;;;;;;;22.80;13.18;;;18.20;1.00;;;;;;5056098;28;20176;-78
2023/06/07 07:19:28;;;;;;;19.38;12.80;;;17.80;1.00;;;;;;5060209;28;20230;-77
2023/06/07 07:21:53;;;;;;;24.73;13.85;;;17.60;1.00;;;;;;5073438;28;20570;-76
2023/06/07 07:24:19;;;;;;;19.42;13.80;;;17.50;7.50;;;;;;5070685;28;20725;-78
2023/06/07 07:26:45;;;;;;;20.90;12.95;;;17.50;9.10;;;;;;5066959;28;20193;-79
2023/06/07 07:29:11;;;;;;;18.50;13.53;;;17.40;9.50;;;;;;5068932;28;20180;-75
2023/06/07 07:31:37;;;;;;;19.35;12.20;;;17.40;11.20;;;;;;5054612;28;20553;-76
2023/06/07 07:34:03;;;;;;;22.65;14.15;;;17.60;9.10;;;;;;5072586;28;20415;-74
2023/06/07 07:36:29;;;;;;;19.45;12.88;;;18.00;1.00;;;;;;5066277;28;20173;-77
2023/06/07 07:38:57;;;;;;;21.43;13.60;;;17.80;1.00;;;;;;5056641;28;20235;-75
2023/06/07 07:41:22;;;;;;;17.97;13.37;;;17.40;10.80;;;;;;5057111;28;20184;-75
2023/06/07 07:43:48;;;;;;;17.80;13.30;;;17.30;16.80;;;;;;5056237;28;20177;-76
2023/06/07 07:46:13;;;;;;;25.30;13.50;;;17.40;14.60;;;;;;5074543;28;20208;-76
2023/06/07 07:48:40;;;;;;;25.27;13.47;;;17.20;19.40;;;;;;5056148;28;20647;-77
2023/06/07 07:51:05;;;;;;;16.23;12.97;;;17.30;19.60;;;;;;5074824;28;20172;-75
2023/06/07 07:53:33;;;;;;;21.90;13.50;;;17.20;23.70;;;;;;5056382;28;20589;-76
2023/06/07 07:55:59;;;;;;;18.37;13.73;;;17.20;22.60;;;;;;5073924;28;20207;-75
2023/06/07 07:58:27;;;;;;;21.33;14.03;;;17.30;19.60;;;;;;5073779;28;20227;-77
2023/06/07 08:00:53;;;;;;;23.20;14.77;;;17.40;18.20;;;;;;5074068;28;20701;-76
2023/06/07 08:03:19;;;;;;;24.03;14.23;;;17.20;21.80;;;;;;5073776;28;20177;-71
2023/06/07 08:05:44;;;;;;;23.37;14.37;;;17.00;29.30;;;;;;5056232;28;20270;-73
2023/06/07 08:08:10;;;;;;;24.13;13.87;;;17.00;32.60;;;;;;5072689;28;20639;-74
2023/06/07 08:10:36;;;;;;;22.90;14.10;;;17.10;29.20;;;;;;5073980;28;20180;-75
2023/06/07 08:13:02;;;;;;;29.33;15.40;;;17.40;27.00;;;;;;5073773;28;20179;-72
2023/06/07 08:15:27;;;;;;;20.37;13.63;;;17.50;21.70;;;;;;5074080;28;20173;-76
2023/06/07 08:17:53;;;;;;;22.40;14.23;;;17.60;18.40;;;;;;5074190;28;20175;-72
2023/06/07 08:20:20;;;;;;;18.92;14.65;;;17.80;14.40;;;;;;5074141;28;20624;-72
2023/06/07 08:22:50;;;;;;;21.17;14.13;;;18.00;14.40;;;;;;5043591;28;20183;-74
2023/06/07 08:25:16;;;;;;;19.20;14.00;;;18.20;5.50;;;;;;5073906;28;20204;-75
2023/06/07 08:27:42;;;;;;;22.30;13.98;;;18.20;1.60;;;;;;5073937;28;20229;-74
2023/06/07 08:30:09;;;;;;;22.38;14.20;;;18.40;1.00;;;;;;5073589;28;20181;-75
2023/06/07 08:32:34;;;;;;;25.23;14.43;;;18.60;1.00;;;;;;5056030;28;20582;-74
2023/06/07 08:35:00;;;;;;;22.98;15.18;;;18.60;1.00;;;;;;5074476;28;20299;-73
2023/06/07 08:37:26;;;;;;;27.23;14.30;;;18.90;1.00;;;;;;5073869;28;20604;-75
2023/06/07 08:39:52;;;;;;;21.20;13.95;;;19.50;1.00;;;;;;5073720;28;20184;-74
2023/06/07 08:42:17;;;;;;;19.17;13.73;;;19.80;1.00;;;;;;5073248;28;20597;-72
2023/06/07 08:44:43;;;;;;;20.23;13.57;;;20.00;1.00;;;;;;5073475;28;20204;-73
2023/06/07 08:47:13;;;;;;;19.23;13.85;;;20.70;1.00;;;;;;5073648;28;20175;-74
2023/06/07 08:49:40;;;;;;;24.20;15.05;;;22.20;1.00;;;;;;5055254;28;20235;-77
2023/06/07 08:52:09;;;;;;;17.25;12.15;;;23.50;99.90;;;;;;5073793;28;20172;-74
2023/06/07 08:54:40;;;;;;;14.43;12.15;;;25.20;1.00;;;;;;5073318;28;20198;-74
2023/06/07 08:57:07;;;;;;;15.63;11.98;;;25.80;99.90;;;;;;5055575;28;20479;-71
2023/06/07 08:59:34;;;;;;;15.85;12.50;;;25.90;99.90;;;;;;5073238;28;20176;-73
2023/06/07 09:02:00;;;;;;;17.98;12.43;;;23.80;1.00;;;;;;5072994;28;20180;-72
2023/06/07 09:04:26;;;;;;;17.90;13.27;;;22.80;99.90;;;;;;5072816;28;20202;-71
2023/06/07 09:06:52;;;;;;;21.83;13.68;;;21.70;1.00;;;;;;5055137;28;20176;-73
2023/06/07 09:09:18;;;;;;;19.58;13.90;;;21.70;1.00;;;;;;5072287;28;20258;-70
2023/06/07 09:11:43;;;;;;;20.10;13.57;;;21.50;1.00;;;;;;5072514;28;20635;-70
2023/06/07 09:14:11;;;;;;;18.52;13.63;;;21.00;1.00;;;;;;5071803;28;20642;-71
2023/06/07 09:16:54;;;;;;;20.23;14.48;;;20.50;1.00;;;;;;5074350;28;20175;-70
2023/06/07 09:19:39;;;;;;;20.95;13.52;;;19.90;1.00;;;;;;5072831;28;20172;-73
2023/06/07 09:22:10;;;;;;;23.85;14.13;;;20.50;1.00;;;;;;5072814;28;20169;-72
2023/06/07 09:24:36;;;;;;;16.67;13.55;;;20.70;1.00;;;;;;5072982;28;20632;-71
2023/06/07 09:27:04;;;;;;;18.83;13.05;;;21.60;1.00;;;;;;5072789;28;20237;-71
2023/06/07 09:29:37;;;;;;;16.33;13.75;;;22.60;1.00;;;;;;5072468;28;20254;-71
2023/06/07 09:32:20;;;;;;;18.45;14.15;;;22.60;1.00;;;;;;5072362;28;20183;-71
2023/06/07 09:34:46;;;;;;;24.27;12.60;;;22.70;1.00;;;;;;5072951;28;20223;-71
2023/06/07 09:37:11;;;;;;;17.90;13.35;;;24.30;1.00;;;;;;5072894;28;20519;-72
2023/06/07 09:39:40;;;;;;;18.90;14.02;;;25.00;1.00;;;;;;5072008;28;20173;-71
2023/06/07 09:42:15;;;;;;;19.15;12.95;;;24.50;1.00;;;;;;5072259;28;20208;-70
2023/06/07 09:44:41;;;;;;;21.35;13.70;;;24.30;99.90;;;;;;5072227;28;20322;-71
2023/06/07 09:47:19;;;;;;;18.33;12.98;;;25.20;1.00;;;;;;5072670;28;20247;-70
2023/06/07 09:49:45;;;;;;;20.85;13.10;;;26.10;99.90;;;;;;5071919;28;20196;-71
2023/06/07 09:52:15;;;;;;;18.88;12.73;;;26.40;99.90;;;;;;5071811;28;20220;-70
2023/06/07 09:54:43;;;;;;;17.42;12.00;;;27.50;1.00;;;;;;5071825;28;20168;-71
2023/06/07 09:57:10;;;;;;;15.00;12.60;;;28.10;99.90;;;;;;5071656;28;20165;-70
2023/06/07 09:59:37;;;;;;;19.60;12.60;;;28.10;99.90;;;;;;5053882;28;20176;-70
2023/06/07 10:02:26;;;;;;;13.43;12.02;;;28.80;17.90;;;;;;5072189;28;20631;-71
2023/06/07 10:04:53;;;;;;;23.55;13.48;;;29.10;1.00;;;;;;5072025;28;20196;-69
2023/06/07 10:07:22;;;;;;;14.23;12.30;;;28.40;1.00;;;;;;5071564;28;20165;-71
2023/06/07 10:09:53;;;;;;;18.90;11.73;;;28.50;1.00;;;;;;5070718;28;20176;-71
2023/06/07 10:12:22;;;;;;;16.42;11.95;;;29.90;1.00;;;;;;5072097;28;20392;-71
2023/06/07 10:14:48;;;;;;;17.38;11.85;;;30.00;1.00;;;;;;5071691;28;20255;-70
2023/06/07 10:17:18;;;;;;;16.48;13.02;;;29.20;1.00;;;;;;5072257;28;20165;-70
2023/06/07 10:19:47;;;;;;;20.23;12.38;;;29.60;1.00;;;;;;5071446;28;20190;-70
2023/06/07 10:22:16;;;;;;;14.45;12.38;;;29.50;1.00;;;;;;5071329;28;20644;-71
2023/06/07 10:25:20;;;;;;;12.98;11.60;;;28.70;1.00;;;;;;5071268;28;20198;-69
2023/06/07 10:27:59;;;;;;;16.40;11.80;;;28.50;1.00;;;;;;5071628;28;20258;-70
2023/06/07 10:30:27;;;;;;;11.95;10.40;;;29.20;1.00;;;;;;5071274;28;20180;-70
2023/06/07 10:32:53;;;;;;;14.32;11.00;;;28.00;1.00;;;;;;5071497;28;20175;-70
2023/06/07 10:35:20;;;;;;;16.13;11.50;;;29.00;1.00;;;;;;5071708;28;20217;-70
2023/06/07 10:37:53;;;;;;;19.15;12.00;;;28.90;1.00;;;;;;5055235;28;20204;-69
2023/06/07 10:40:20;;;;;;;20.45;12.35;;;29.30;1.00;;;;;;5053049;28;20182;-70
2023/06/07 10:42:46;;;;;;;15.13;11.27;;;28.70;1.00;;;;;;5053428;28;20172;-72
2023/06/07 10:45:16;;;;;;;13.15;9.95;;;28.50;1.00;;;;;;5071220;28;20295;-70
2023/06/07 10:47:43;;;;;;;16.55;11.63;;;29.60;1.00;;;;;;5071304;28;20291;-71
2023/06/07 10:50:31;;;;;;;16.02;11.10;;;29.50;1.00;;;;;;5051468;28;20582;-72
2023/06/07 10:53:01;;;;;;;14.93;11.18;;;30.80;1.00;;;;;;5045414;28;20512;-70
2023/06/07 10:55:31;;;;;;;13.05;9.85;;;29.70;1.00;;;;;;5040682;28;20234;-69
2023/06/07 10:57:57;;;;;;;15.63;11.73;;;30.00;1.00;;;;;;5061225;28;20187;-70
2023/06/07 11:00:29;;;;;;;17.77;12.25;;;29.40;1.00;;;;;;5068707;28;20204;-72
2023/06/07 11:03:12;;;;;;;15.25;9.90;;;29.20;1.00;;;;;;5060600;28;20180;-72
2023/06/07 11:05:52;;;;;;;13.70;10.70;;;28.60;1.00;;;;;;5069855;28;20208;-72
2023/06/07 11:08:26;;;;;;;13.88;10.35;;;27.80;1.00;;;;;;5051942;28;20237;-74
2023/06/07 11:10:58;;;;;;;13.75;10.38;;;27.60;13.20;;;;;;5069908;28;20176;-73
2023/06/07 11:13:25;;;;;;;13.23;9.90;;;27.60;99.90;;;;;;5068615;28;20181;-72
2023/06/07 11:15:50;;;;;;;14.30;9.73;;;28.30;1.00;;;;;;5069242;28;20176;-72
2023/06/07 11:18:16;;;;;;;16.17;10.13;;;28.50;1.00;;;;;;5068462;28;20477;-71
2023/06/07 11:20:44;;;;;;;13.73;9.80;;;28.10;1.00;;;;;;5058693;28;20182;-73
2023/06/07 11:23:20;;;;;;;14.02;9.82;;;27.80;1.00;;;;;;5067220;28;20192;-72
2023/06/07 11:25:46;;;;;;;12.10;9.68;;;27.10;99.90;;;;;;5063843;28;20220;-70
2023/06/07 11:28:12;;;;;;;11.80;9.93;;;27.20;99.90;;;;;;5071795;28;20278;-71
2023/06/07 11:30:42;;;;;;;14.73;10.57;;;27.40;99.90;;;;;;5069707;28;20170;-71
2023/06/07 11:33:13;;;;;;;16.15;9.15;;;27.80;1.00;;;;;;5040771;28;20294;-69
2023/06/07 11:35:40;;;;;;;10.63;9.63;;;27.40;99.90;;;;;;5055241;28;20224;-70
2023/06/07 11:38:06;;;;;;;9.73;8.60;;;27.80;1.00;;;;;;5070435;28;20301;-71
2023/06/07 11:40:31;;;;;;;13.95;9.57;;;27.20;99.90;;;;;;5069729;28;20540;-70
2023/06/07 11:42:57;;;;;;;11.35;9.77;;;26.80;99.90;;;;;;5072477;28;20259;-69
2023/06/07 11:45:22;;;;;;;13.05;9.52;;;26.20;1.00;;;;;;5073212;28;20632;-71
2023/06/07 11:47:49;;;;;;;14.82;9.52;;;26.60;1.00;;;;;;5071610;28;20207;-71
2023/06/07 11:50:15;;;;;;;9.75;8.60;;;26.30;1.00;;;;;;5071726;28;20181;-70
2023/06/07 11:52:41;;;;;;;10.73;8.85;;;25.60;52.30;;;;;;5055436;28;20176;-75
2023/06/07 11:55:09;;;;;;;10.90;9.65;;;24.90;99.90;;;;;;5054714;28;20260;-77
2023/06/07 11:57:38;;;;;;;10.50;9.27;;;25.50;1.00;;;;;;5073941;28;20183;-75
2023/06/07 12:00:18;;;;;;;12.52;9.38;;;25.70;99.90;;;;;;5069165;28;20196;-77
2023/06/07 12:02:44;;;;;;;12.93;9.50;;;25.70;1.00;;;;;;5069267;28;20176;-72
2023/06/07 12:05:10;;;;;;;11.65;9.82;;;25.90;1.00;;;;;;5067948;28;20738;-70
2023/06/07 12:07:36;;;;;;;17.60;9.55;;;26.20;99.90;;;;;;5069872;28;20212;-69
2023/06/07 12:10:06;;;;;;;9.98;8.85;;;26.50;1.00;;;;;;5068312;28;20579;-71
2023/06/07 12:12:32;;;;;;;12.88;10.15;;;25.90;1.00;;;;;;5065454;28;20188;-73
2023/06/07 12:15:02;;;;;;;12.63;9.07;;;25.50;1.00;;;;;;5067790;28;20830;-72
2023/06/07 12:17:34;;;;;;;15.77;9.30;;;25.60;1.00;;;;;;5070087;28;20171;-71
2023/06/07 12:20:11;;;;;;;11.70;8.90;;;25.90;1.00;;;;;;5052677;28;20557;-73
2023/06/07 12:22:40;;;;;;;12.75;9.82;;;25.60;99.90;;;;;;5054503;28;20172;-71
2023/06/07 12:25:12;;;;;;;14.35;9.25;;;25.60;1.00;;;;;;5070366;28;20234;-72
2023/06/07 12:27:37;;;;;;;11.60;9.60;;;25.70;1.00;;;;;;5072075;28;20161;-74
2023/06/07 12:30:07;;;;;;;12.50;9.75;;;26.00;99.90;;;;;;5073454;28;20172;-74
2023/06/07 12:32:33;;;;;;;15.80;9.25;;;25.80;96.50;;;;;;5073846;28;20177;-74
2023/06/07 12:35:05;;;;;;;12.18;8.93;;;25.90;1.00;;;;;;5074114;28;20226;-76